Time;durP1;ratioP1;P1;durP2;ratioP2;P2;SDS_P1;SDS_P2;PMS_P1;PMS_P2;Temp;Humidity;BMP_temperature;BMP_pressure;BME280_temperature;BME280_humidity;BME280_pressure;Samples;Min_cycle;Max_cycle;Signal;HPM_P1;HPM_P2
2022/07/01 00:00:59;;;;;;;;;;;;;;;18.41;53.44;99505.50;5030253;28;19998;-52
2022/07/01 00:03:25;;;;;;;;;;;;;;;18.40;53.38;99511.69;5030470;28;20010;-48
2022/07/01 00:05:50;;;;;;;;;;;;;;;18.40;53.61;99509.06;5021128;28;20312;-52
2022/07/01 00:08:16;;;;;;;;;;;;;;;18.41;53.52;99510.75;5022023;28;20307;-48
2022/07/01 00:10:42;;;;;;;;;;;;;;;18.40;53.80;99515.19;5019950;28;19922;-49
2022/07/01 00:13:08;;;;;;;;;;;;;;;18.39;53.80;99512.63;5031630;28;19916;-48
2022/07/01 00:15:33;;;;;;;;;;;;;;;18.36;53.87;99511.06;5023316;28;19997;-48
2022/07/01 00:17:59;;;;;;;;;;;;;;;18.36;54.11;99507.59;5013478;28;19925;-51
2022/07/01 00:20:25;;;;;;;;;;;;;;;18.34;54.18;99514.75;5014532;28;19924;-48
2022/07/01 00:22:50;;;;;;;;;;;;;;;18.32;54.22;99522.75;5018967;28;19917;-47
2022/07/01 00:25:16;;;;;;;;;;;;;;;18.30;54.37;99515.91;5036220;28;19921;-51
2022/07/01 00:27:42;;;;;;;;;;;;;;;18.28;54.51;99516.00;5015068;28;19920;-55
2022/07/01 00:30:11;;;;;;;;;;;;;;;18.27;54.58;99514.31;5002656;28;19924;-50
2022/07/01 00:32:38;;;;;;;;;;;;;;;18.27;54.50;99519.59;5046605;28;19928;-52
2022/07/01 00:35:04;;;;;;;;;;;;;;;18.29;54.53;99522.13;5060478;28;20004;-48
2022/07/01 00:37:30;;;;;;;;;;;;;;;18.27;54.55;99513.47;5031215;28;20573;-52
2022/07/01 00:39:55;;;;;;;;;;;;;;;18.29;54.46;99508.97;5026280;28;20356;-52
2022/07/01 00:42:21;;;;;;;;;;;;;;;18.28;54.48;99508.13;5061398;28;19943;-50
2022/07/01 00:44:47;;;;;;;;;;;;;;;18.28;54.46;99508.13;5031436;28;19978;-48
2022/07/01 00:47:13;;;;;;;;;;;;;;;18.29;54.66;99508.97;5047663;28;20401;-51
2022/07/01 00:49:39;;;;;;;;;;;;;;;18.28;54.66;99508.13;5016626;28;19971;-52
2022/07/01 00:52:06;;;;;;;;;;;;;;;18.28;54.55;99507.28;5014766;28;19921;-53
2022/07/01 00:54:33;;;;;;;;;;;;;;;18.26;54.64;99512.66;5032284;28;19921;-50
2022/07/01 00:56:58;;;;;;;;;;;;;;;18.26;54.78;99515.28;5016713;28;19924;-49
2022/07/01 00:59:24;;;;;;;;;;;;;;;18.26;54.90;99519.72;5061296;28;19920;-49
2022/07/01 01:01:50;;;;;;;;;;;;;;;18.23;54.82;99515.47;5020179;28;19939;-53
2022/07/01 01:04:16;;;;;;;;;;;;;;;18.24;54.87;99522.44;5029353;28;20389;-48
2022/07/01 01:06:42;;;;;;;;;;;;;;;18.23;55.07;99525.16;5029628;28;19920;-51
2022/07/01 01:09:07;;;;;;;;;;;;;;;18.22;55.08;99532.22;5016884;28;19964;-54
2022/07/01 01:11:33;;;;;;;;;;;;;;;18.20;55.00;99531.50;5028515;28;19916;-49
2022/07/01 01:13:58;;;;;;;;;;;;;;;18.18;55.29;99526.31;5025503;28;19917;-50
2022/07/01 01:16:25;;;;;;;;;;;;;;;18.17;55.41;99524.63;5025414;28;20673;-49
2022/07/01 01:18:51;;;;;;;;;;;;;;;18.17;55.37;99529.06;5027780;28;20416;-50
2022/07/01 01:21:16;;;;;;;;;;;;;;;18.13;55.56;99530.22;5029145;28;19917;-50
2022/07/01 01:23:42;;;;;;;;;;;;;;;18.10;55.64;99536.53;5031064;28;19917;-50
2022/07/01 01:26:21;;;;;;;;;;;;;;;18.07;55.70;99535.88;5027741;28;19972;-50
2022/07/01 01:28:47;;;;;;;;;;;;;;;18.05;55.86;99536.00;5029338;28;20359;-49
2022/07/01 01:31:14;;;;;;;;;;;;;;;18.02;55.76;99528.31;5030423;28;20016;-52
2022/07/01 01:33:40;;;;;;;;;;;;;;;18.00;55.85;99535.47;5022502;28;19924;-53
2022/07/01 01:36:06;;;;;;;;;;;;;;;17.98;56.04;99536.50;5059204;28;19978;-47
2022/07/01 01:38:35;;;;;;;;;;;;;;;17.95;56.11;99534.91;5028295;28;20389;-47
2022/07/01 01:41:01;;;;;;;;;;;;;;;17.94;56.25;99532.41;5030711;28;19999;-48
2022/07/01 01:43:27;;;;;;;;;;;;;;;17.92;56.21;99535.13;5028892;28;19917;-49
2022/07/01 01:45:53;;;;;;;;;;;;;;;17.93;56.31;99535.97;5014729;28;19944;-48
2022/07/01 01:48:18;;;;;;;;;;;;;;;17.92;56.37;99531.66;5014067;28;19918;-51
2022/07/01 01:50:44;;;;;;;;;;;;;;;17.94;56.11;99538.50;5029979;28;20445;-50
2022/07/01 01:53:09;;;;;;;;;;;;;;;17.95;56.20;99540.16;5029787;28;19925;-52
2022/07/01 01:55:35;;;;;;;;;;;;;;;17.96;56.14;99535.75;5013574;28;20321;-55
2022/07/01 01:58:00;;;;;;;;;;;;;;;17.97;55.98;99540.94;4998044;28;20413;-48
2022/07/01 02:00:26;;;;;;;;;;;;;;;17.98;56.12;99545.25;5026259;28;19919;-47
2022/07/01 02:02:52;;;;;;;;;;;;;;;18.01;56.04;99542.41;5026974;28;19956;-47
2022/07/01 02:05:18;;;;;;;;;;;;;;;18.01;55.88;99542.41;5030539;28;19917;-48
2022/07/01 02:07:44;;;;;;;;;;;;;;;18.00;55.78;99546.00;5031232;28;19924;-48
2022/07/01 02:10:10;;;;;;;;;;;;;;;18.00;55.75;99555.69;5029675;28;20015;-50
2022/07/01 02:12:36;;;;;;;;;;;;;;;18.00;55.84;99555.69;5061004;28;19916;-49
2022/07/01 02:15:01;;;;;;;;;;;;;;;17.98;55.93;99558.41;5014132;28;20420;-50
2022/07/01 02:17:29;;;;;;;;;;;;;;;17.97;55.86;99558.50;5017685;28;20463;-50
2022/07/01 02:19:54;;;;;;;;;;;;;;;17.96;55.94;99554.19;5015104;28;19964;-48
2022/07/01 02:22:20;;;;;;;;;;;;;;;17.95;55.86;99557.78;5013482;28;19924;-48
2022/07/01 02:24:46;;;;;;;;;;;;;;;17.93;55.95;99560.50;5029142;28;19952;-47
2022/07/01 02:27:12;;;;;;;;;;;;;;;17.93;55.59;99557.88;5026186;28;19996;-49
2022/07/01 02:29:37;;;;;;;;;;;;;;;17.93;55.72;99557.88;5023985;28;19913;-47
2022/07/01 02:32:03;;;;;;;;;;;;;;;17.94;55.67;99561.34;5009469;28;19923;-50
2022/07/01 02:34:29;;;;;;;;;;;;;;;17.96;55.51;99560.28;5007803;28;19917;-48
2022/07/01 02:36:55;;;;;;;;;;;;;;;17.98;55.28;99570.72;5012040;28;20386;-49
2022/07/01 02:39:21;;;;;;;;;;;;;;;17.98;55.29;99568.06;5022550;28;19917;-48
2022/07/01 02:44:31;;;;;;;;;;;;;;;17.99;55.40;99582.94;5021046;28;20015;-51
2022/07/01 02:46:57;;;;;;;;;;;;;;;17.98;55.53;99576.81;5019496;28;20003;-47
2022/07/01 02:49:22;;;;;;;;;;;;;;;17.99;55.42;99589.03;5015422;28;19917;-50
2022/07/01 02:51:48;;;;;;;;;;;;;;;18.02;55.38;99598.50;5027517;28;19960;-49
2022/07/01 02:54:13;;;;;;;;;;;;;;;18.02;55.30;99595.88;5023559;28;19923;-50
2022/07/01 02:56:39;;;;;;;;;;;;;;;18.01;55.36;99595.00;5012770;28;20004;-48
2022/07/01 02:59:05;;;;;;;;;;;;;;;17.99;55.31;99602.19;5029404;28;19917;-49
2022/07/01 03:01:30;;;;;;;;;;;;;;;18.00;55.24;99603.88;5011747;28;20031;-48
2022/07/01 03:03:56;;;;;;;;;;;;;;;18.03;55.06;99600.19;5023566;28;19923;-47
2022/07/01 03:06:22;;;;;;;;;;;;;;;18.04;55.03;99613.25;5027339;28;20392;-49
2022/07/01 03:08:48;;;;;;;;;;;;;;;18.04;54.95;99615.88;5030325;28;19921;-51
2022/07/01 03:11:14;;;;;;;;;;;;;;;18.06;54.80;99615.75;5012881;28;19924;-48
2022/07/01 03:13:39;;;;;;;;;;;;;;;18.04;54.83;99628.19;5022279;28;19913;-49
2022/07/01 03:16:05;;;;;;;;;;;;;;;18.05;54.88;99622.84;5015482;28;19928;-50
2022/07/01 03:18:31;;;;;;;;;;;;;;;18.08;54.54;99627.88;5027653;28;19924;-51
2022/07/01 03:20:56;;;;;;;;;;;;;;;18.11;54.16;99629.44;5017507;28;19928;-50
2022/07/01 03:23:22;;;;;;;;;;;;;;;18.13;54.11;99627.56;5012828;28;19921;-49
2022/07/01 03:25:49;;;;;;;;;;;;;;;18.16;53.88;99622.13;5022001;28;19924;-51
2022/07/01 03:28:15;;;;;;;;;;;;;;;18.15;53.98;99623.06;5029686;28;19939;-48
2022/07/01 03:30:40;;;;;;;;;;;;;;;18.17;53.94;99623.78;5018135;28;20393;-50
2022/07/01 03:33:06;;;;;;;;;;;;;;;18.18;53.66;99625.47;5016213;28;20425;-50
2022/07/01 03:35:45;;;;;;;;;;;;;;;18.20;53.13;99629.72;5024520;28;20416;-48
2022/07/01 03:38:10;;;;;;;;;;;;;;;18.21;53.23;99625.28;5024185;28;19917;-49
2022/07/01 03:40:36;;;;;;;;;;;;;;;18.21;53.20;99634.00;5028531;28;19917;-50
2022/07/01 03:43:02;;;;;;;;;;;;;;;18.22;52.97;99626.94;5028055;28;20371;-48
2022/07/01 03:45:27;;;;;;;;;;;;;;;18.23;52.56;99627.81;5027195;28;20305;-50
2022/07/01 03:47:53;;;;;;;;;;;;;;;18.23;52.26;99635.69;5020493;28;19918;-50
2022/07/01 03:50:20;;;;;;;;;;;;;;;18.26;51.88;99639.00;5021156;28;19924;-47
2022/07/01 03:52:46;;;;;;;;;;;;;;;18.30;51.35;99644.88;5025241;28;19921;-50
2022/07/01 03:55:12;;;;;;;;;;;;;;;18.33;51.13;99645.50;5029124;28;19925;-47
2022/07/01 03:57:38;;;;;;;;;;;;;;;18.36;51.09;99644.47;5019340;28;19917;-48
2022/07/01 04:00:05;;;;;;;;;;;;;;;18.40;50.58;99644.16;5058636;28;19932;-47
2022/07/01 04:02:30;;;;;;;;;;;;;;;18.43;49.93;99643.94;5010236;28;19921;-50
2022/07/01 04:04:56;;;;;;;;;;;;;;;18.48;49.67;99648.91;5022888;28;19964;-47
2022/07/01 04:07:21;;;;;;;;;;;;;;;18.50;49.46;99653.13;5013580;28;19952;-49
2022/07/01 04:09:47;;;;;;;;;;;;;;;18.54;49.17;99653.78;5018254;28;19965;-48
2022/07/01 04:12:13;;;;;;;;;;;;;;;18.56;48.29;99658.03;5001378;28;19917;-49
2022/07/01 04:14:39;;;;;;;;;;;;;;;18.59;47.99;99662.22;5044115;28;19917;-49
2022/07/01 04:17:04;;;;;;;;;;;;;;;18.61;47.82;99661.19;5045356;28;19917;-51
2022/07/01 04:19:30;;;;;;;;;;;;;;;18.65;47.75;99671.50;5026011;28;19924;-48
2022/07/01 04:24:39;;;;;;;;;;;;;;;18.72;46.90;99670.16;5027300;28;19917;-48
2022/07/01 04:27:06;;;;;;;;;;;;;;;18.76;46.62;99672.47;5032859;28;19978;-49
2022/07/01 04:29:32;;;;;;;;;;;;;;;18.78;46.42;99667.94;5029298;28;20451;-50
2022/07/01 04:31:58;;;;;;;;;;;;;;;18.81;46.47;99670.38;5013556;28;20020;-51
2022/07/01 04:34:24;;;;;;;;;;;;;;;18.85;46.40;99665.72;5018452;28;20285;-50
2022/07/01 04:36:49;;;;;;;;;;;;;;;18.89;46.30;99677.75;5043536;28;20011;-51
2022/07/01 04:39:15;;;;;;;;;;;;;;;18.92;45.84;99670.47;5026950;28;19917;-53
2022/07/01 04:42:00;;;;;;;;;;;;;;;18.97;44.95;99678.91;5028632;28;19916;-48
2022/07/01 04:44:30;;;;;;;;;;;;;;;19.00;44.47;99689.22;5032734;28;20235;-51
2022/07/01 04:46:57;;;;;;;;;;;;;;;19.05;44.10;99676.56;5029749;28;19917;-53
2022/07/01 04:49:24;;;;;;;;;;;;;;;19.09;44.14;99682.50;5027750;28;19917;-51
2022/07/01 04:51:49;;;;;;;;;;;;;;;19.12;43.80;99684.91;5025033;28;19918;-47
2022/07/01 04:54:15;;;;;;;;;;;;;;;19.15;43.81;99689.97;5021969;28;19924;-49
2022/07/01 04:56:41;;;;;;;;;;;;;;;19.21;43.68;99694.78;5032510;28;20023;-49
2022/07/01 04:59:07;;;;;;;;;;;;;;;19.23;43.58;99699.97;5036478;28;19921;-48
2022/07/01 05:01:32;;;;;;;;;;;;;;;19.26;43.28;99686.59;5036921;28;19963;-51
2022/07/01 05:03:58;;;;;;;;;;;;;;;19.29;43.12;99689.00;5016914;28;19970;-51
2022/07/01 05:06:24;;;;;;;;;;;;;;;19.31;42.76;99692.38;5032583;28;19967;-49
2022/07/01 05:08:50;;;;;;;;;;;;;;;19.32;42.82;99694.91;5031842;28;19928;-49
2022/07/01 05:11:16;;;;;;;;;;;;;;;19.37;42.71;99694.56;5012199;28;20322;-52
2022/07/01 05:13:41;;;;;;;;;;;;;;;19.39;42.39;99700.59;5029815;28;19921;-50
2022/07/01 05:16:08;;;;;;;;;;;;;;;19.41;41.98;99701.34;5030911;28;20031;-49
2022/07/01 05:24:03;;;;;;;;;;;;;;;19.54;41.36;99696.91;5026729;28;20019;-46
2022/07/01 05:26:28;;;;;;;;;;;;;;;19.60;41.39;99685.06;5029941;28;19917;-46
2022/07/01 05:28:54;;;;;;;;;;;;;;;19.66;41.37;99689.91;5017921;28;19939;-45
2022/07/01 05:31:21;;;;;;;;;;;;;;;19.72;41.48;99678.94;5027886;28;19924;-45
2022/07/01 05:33:47;;;;;;;;;;;;;;;19.77;41.43;99680.28;5066389;28;19917;-45
2022/07/01 05:36:12;;;;;;;;;;;;;;;19.85;41.43;99679.72;5031642;28;19925;-44
2022/07/01 05:38:38;;;;;;;;;;;;;;;19.95;41.43;99682.50;5031397;28;20307;-43
2022/07/01 05:41:04;;;;;;;;;;;;;;;20.05;41.85;99689.66;5031562;28;19940;-47
2022/07/01 05:43:30;;;;;;;;;;;;;;;20.11;41.19;99686.56;5029749;28;19921;-45
2022/07/01 05:45:56;;;;;;;;;;;;;;;20.16;40.89;99681.78;5026856;28;20022;-47
2022/07/01 05:48:22;;;;;;;;;;;;;;;20.23;40.74;99690.09;5031367;28;19923;-45
2022/07/01 05:50:48;;;;;;;;;;;;;;;20.31;40.58;99693.03;5029807;28;19921;-47
2022/07/01 05:53:13;;;;;;;;;;;;;;;20.38;40.29;99689.00;5024449;28;19916;-46
2022/07/01 05:55:39;;;;;;;;;;;;;;;20.44;40.16;99695.63;5030789;28;19978;-46
2022/07/01 05:58:08;;;;;;;;;;;;;;;20.50;40.04;99693.38;5029743;28;19920;-48
2022/07/01 06:00:33;;;;;;;;;;;;;;;20.58;40.13;99692.78;5019663;28;19925;-45
2022/07/01 06:02:59;;;;;;;;;;;;;;;20.64;39.74;99690.53;5028111;28;19920;-45
2022/07/01 06:05:25;;;;;;;;;;;;;;;20.71;39.41;99691.75;5028944;28;19961;-44
2022/07/01 06:07:50;;;;;;;;;;;;;;;20.77;39.06;99690.44;5030848;28;20359;-44
2022/07/01 06:10:16;;;;;;;;;;;;;;;20.84;39.10;99696.94;5055033;28;19921;-46
2022/07/01 06:12:42;;;;;;;;;;;;;;;20.90;38.44;99692.97;5020544;28;19967;-50
2022/07/01 06:15:08;;;;;;;;;;;;;;;20.99;38.37;99686.97;5008971;28;20035;-49
2022/07/01 06:17:35;;;;;;;;;;;;;;;21.06;38.04;99691.69;5030790;28;19948;-47
2022/07/01 06:20:00;;;;;;;;;;;;;;;21.13;37.82;99692.91;5029728;28;19917;-50
2022/07/01 06:22:26;;;;;;;;;;;;;;;21.23;37.84;99681.63;5030881;28;19970;-50
2022/07/01 06:24:51;;;;;;;;;;;;;;;21.34;37.83;99692.22;5030798;28;19970;-48
2022/07/01 06:27:17;;;;;;;;;;;;;;;21.45;37.61;99697.50;5029149;28;19960;-48
2022/07/01 06:29:43;;;;;;;;;;;;;;;21.57;37.44;99709.75;5016633;28;19924;-48
2022/07/01 06:32:09;;;;;;;;;;;;;;;21.70;36.82;99699.88;5029045;28;19963;-47
2022/07/01 06:34:35;;;;;;;;;;;;;;;21.83;36.87;99695.28;5026378;28;19924;-48
2022/07/01 06:37:01;;;;;;;;;;;;;;;21.98;36.66;99706.50;5023810;28;19917;-47
2022/07/01 06:39:28;;;;;;;;;;;;;;;22.11;35.91;99708.97;5023156;28;19921;-47
2022/07/01 06:41:54;;;;;;;;;;;;;;;22.31;35.44;99710.81;5030403;28;20008;-50
2022/07/01 06:44:20;;;;;;;;;;;;;;;22.76;34.66;99714.16;5009129;28;20355;-50
2022/07/01 06:46:46;;;;;;;;;;;;;;;23.48;33.49;99701.72;5008605;28;20410;-52
2022/07/01 06:49:11;;;;;;;;;;;;;;;24.37;32.12;99711.44;5015223;28;19913;-52
2022/07/01 06:51:39;;;;;;;;;;;;;;;25.47;30.07;99712.66;5042204;28;20463;-52
2022/07/01 06:54:04;;;;;;;;;;;;;;;26.58;28.43;99715.06;5048035;28;20063;-45
2022/07/01 06:56:30;;;;;;;;;;;;;;;27.54;26.79;99714.06;5004619;28;19979;-48
2022/07/01 06:58:56;;;;;;;;;;;;;;;28.53;25.48;99717.69;5024398;28;19924;-48
2022/07/01 07:01:21;;;;;;;;;;;;;;;29.67;24.21;99718.41;5022524;28;19927;-44
2022/07/01 07:03:47;;;;;;;;;;;;;;;30.59;22.82;99730.97;5007188;28;20412;-48
2022/07/01 07:06:13;;;;;;;;;;;;;;;31.51;21.82;99726.22;5006946;28;19924;-47
2022/07/01 07:08:39;;;;;;;;;;;;;;;32.47;20.69;99723.28;5023590;28;20320;-50
2022/07/01 07:11:04;;;;;;;;;;;;;;;33.32;19.90;99728.56;5026440;28;19917;-50
2022/07/01 07:13:30;;;;;;;;;;;;;;;34.17;19.22;99724.63;5019567;28;20348;-47
2022/07/01 07:15:56;;;;;;;;;;;;;;;35.02;18.03;99722.03;5029518;28;19952;-47
2022/07/01 07:18:21;;;;;;;;;;;;;;;35.75;17.03;99724.66;5062007;28;20421;-47
2022/07/01 07:20:47;;;;;;;;;;;;;;;36.47;16.32;99719.69;5029023;28;19996;-47
2022/07/01 07:23:13;;;;;;;;;;;;;;;37.05;14.85;99730.28;5015988;28;19964;-48
2022/07/01 07:25:38;;;;;;;;;;;;;;;37.64;14.63;99732.41;5020411;28;20377;-50
2022/07/01 07:28:04;;;;;;;;;;;;;;;38.03;13.73;99741.97;5029825;28;19924;-46
2022/07/01 07:30:30;;;;;;;;;;;;;;;38.37;13.14;99740.44;5028805;28;20671;-46
2022/07/01 07:32:55;;;;;;;;;;;;;;;38.94;12.57;99746.31;5019999;28;20011;-49
2022/07/01 07:35:21;;;;;;;;;;;;;;;39.38;11.96;99748.44;5025498;28;19967;-48
2022/07/01 07:37:46;;;;;;;;;;;;;;;39.61;11.95;99752.19;5049967;28;19921;-49
2022/07/01 07:40:14;;;;;;;;;;;;;;;39.95;11.93;99755.91;5030095;28;19921;-46
2022/07/01 07:42:43;;;;;;;;;;;;;;;40.16;11.40;99749.78;5027143;28;20412;-46
2022/07/01 07:45:11;;;;;;;;;;;;;;;40.49;11.19;99746.34;5014073;28;20598;-48
2022/07/01 07:47:38;;;;;;;;;;;;;;;40.99;10.73;99755.41;5024536;28;19924;-46
2022/07/01 07:50:04;;;;;;;;;;;;;;;41.33;10.85;99763.59;5032514;28;19917;-50
2022/07/01 07:52:29;;;;;;;;;;;;;;;41.58;10.57;99760.41;5028829;28;20404;-45
2022/07/01 07:54:55;;;;;;;;;;;;;;;41.84;9.84;99763.19;5045407;28;19944;-46
2022/07/01 07:57:21;;;;;;;;;;;;;;;42.05;9.55;99763.47;5055638;28;19965;-46
2022/07/01 07:59:46;;;;;;;;;;;;;;;42.23;9.10;99763.97;5033401;28;19916;-48
2022/07/01 08:02:12;;;;;;;;;;;;;;;42.37;9.07;99769.03;5031561;28;19960;-54
2022/07/01 08:04:37;;;;;;;;;;;;;;;42.57;9.21;99777.44;5031445;28;19924;-52
2022/07/01 08:07:03;;;;;;;;;;;;;;;42.71;8.69;99772.41;5031799;28;19917;-46
2022/07/01 08:09:28;;;;;;;;;;;;;;;42.87;8.56;99774.19;5031449;28;19921;-48
2022/07/01 08:11:54;;;;;;;;;;;;;;;43.17;8.51;99774.44;5011631;28;19924;-45
2022/07/01 08:14:21;;;;;;;;;;;;;;;43.17;8.66;99784.56;5027710;28;19925;-47
2022/07/01 08:16:46;;;;;;;;;;;;;;;43.26;8.28;99780.22;5031868;28;19939;-47
2022/07/01 08:19:12;;;;;;;;;;;;;;;43.25;8.57;99779.41;5032758;28;19952;-45
2022/07/01 08:21:38;;;;;;;;;;;;;;;43.34;8.38;99786.00;5032363;28;19917;-51
2022/07/01 08:24:04;;;;;;;;;;;;;;;43.29;8.67;99788.72;4998865;28;19970;-48
2022/07/01 08:26:30;;;;;;;;;;;;;;;43.36;8.52;99796.72;5032145;28;20482;-48
2022/07/01 08:28:56;;;;;;;;;;;;;;;43.57;8.63;99789.47;5032031;28;20312;-50
2022/07/01 08:31:21;;;;;;;;;;;;;;;43.72;8.59;99801.31;5031893;28;19960;-52
2022/07/01 08:33:47;;;;;;;;;;;;;;;43.77;8.48;99790.38;5030381;28;19917;-50
2022/07/01 08:36:13;;;;;;;;;;;;;;;43.75;8.26;99797.25;5032257;28;19921;-48
2022/07/01 08:38:41;;;;;;;;;;;;;;;43.67;8.09;99784.88;5031019;28;20028;-49
2022/07/01 08:41:06;;;;;;;;;;;;;;;43.67;8.08;99795.00;5032337;28;19928;-47
2022/07/01 08:43:32;;;;;;;;;;;;;;;43.84;7.89;99793.72;5027945;28;20430;-51
2022/07/01 08:45:58;;;;;;;;;;;;;;;43.97;8.05;99794.34;5039326;28;19925;-51
2022/07/01 08:48:23;;;;;;;;;;;;;;;44.27;8.35;99786.25;5056148;28;20003;-49
2022/07/01 08:50:49;;;;;;;;;;;;;;;44.25;8.19;99791.97;5031375;28;20403;-47
2022/07/01 08:53:14;;;;;;;;;;;;;;;44.40;8.27;99788.44;5029308;28;20452;-53
2022/07/01 08:58:29;;;;;;;;;;;;;;;44.68;8.40;99795.38;5036105;28;19917;-49
2022/07/01 09:01:11;;;;;;;;;;;;;;;44.89;8.16;99796.22;5032005;28;19924;-49
2022/07/01 09:03:37;;;;;;;;;;;;;;;45.07;8.26;99784.69;5029600;28;19987;-48
2022/07/01 09:06:02;;;;;;;;;;;;;;;45.20;8.57;99794.28;5013866;28;20360;-47
2022/07/01 09:08:28;;;;;;;;;;;;;;;45.34;8.59;99784.38;5031717;28;20329;-47
2022/07/01 09:10:53;;;;;;;;;;;;;;;45.45;8.42;99784.09;5031548;28;19917;-51
2022/07/01 09:13:19;;;;;;;;;;;;;;;45.41;8.51;99782.16;5028478;28;19944;-47
2022/07/01 09:15:45;;;;;;;;;;;;;;;45.35;8.55;99791.50;5055177;28;19917;-47
2022/07/01 09:18:15;;;;;;;;;;;;;;;45.30;8.47;99786.84;5031634;28;19928;-48
2022/07/01 09:20:41;;;;;;;;;;;;;;;45.19;8.47;99789.88;5038973;28;19971;-44
2022/07/01 09:23:10;;;;;;;;;;;;;;;45.30;8.53;99792.34;5030207;28;19909;-48
2022/07/01 09:25:39;;;;;;;;;;;;;;;45.37;8.38;99790.16;5030020;28;19921;-49
2022/07/01 09:28:15;;;;;;;;;;;;;;;45.45;8.22;99786.03;5030000;28;19970;-51
2022/07/01 09:30:42;;;;;;;;;;;;;;;45.68;7.94;99788.16;5030961;28;19916;-43
2022/07/01 09:33:08;;;;;;;;;;;;;;;45.76;7.58;99793.06;5029435;28;19924;-43
2022/07/01 09:35:34;;;;;;;;;;;;;;;45.61;7.88;99786.78;5028566;28;20262;-45
2022/07/01 09:38:00;;;;;;;;;;;;;;;45.35;7.79;99791.50;5030391;28;19928;-45
2022/07/01 09:40:25;;;;;;;;;;;;;;;44.96;7.33;99794.84;5031071;28;20293;-45
2022/07/01 09:42:51;;;;;;;;;;;;;;;44.92;7.26;99784.66;5013511;28;20393;-44
2022/07/01 09:45:16;;;;;;;;;;;;;;;44.81;7.32;99794.00;5051670;28;19928;-45
2022/07/01 09:47:45;;;;;;;;;;;;;;;44.50;7.16;99788.47;5012165;28;19924;-48
2022/07/01 09:50:10;;;;;;;;;;;;;;;44.32;7.18;99794.47;5030038;28;20476;-44
2022/07/01 09:52:37;;;;;;;;;;;;;;;44.11;7.45;99792.75;5054490;28;20019;-44
2022/07/01 09:55:03;;;;;;;;;;;;;;;44.24;7.74;99795.78;5029185;28;20309;-44
2022/07/01 09:57:29;;;;;;;;;;;;;;;44.37;7.69;99783.53;5030452;28;19960;-42
2022/07/01 09:59:54;;;;;;;;;;;;;;;44.12;7.71;99797.97;5030845;28;20397;-43
2022/07/01 10:02:20;;;;;;;;;;;;;;;43.92;7.66;99799.81;5036891;28;19917;-43
2022/07/01 10:04:47;;;;;;;;;;;;;;;43.91;7.47;99796.25;5056305;28;20483;-45
2022/07/01 10:07:28;;;;;;;;;;;;;;;43.83;7.61;99783.84;5029996;28;19924;-45
2022/07/01 10:10:12;;;;;;;;;;;;;;;43.71;7.51;99796.94;5051423;28;20317;-47
2022/07/01 10:12:39;;;;;;;;;;;;;;;43.75;7.33;99789.03;5029311;28;19916;-44
2022/07/01 10:15:05;;;;;;;;;;;;;;;43.76;7.13;99796.16;5026489;28;19956;-46
2022/07/01 10:17:35;;;;;;;;;;;;;;;43.86;7.35;99799.75;5061871;28;20312;-46
2022/07/01 10:20:08;;;;;;;;;;;;;;;44.10;7.47;99793.84;5030184;28;19917;-45
2022/07/01 10:22:35;;;;;;;;;;;;;;;43.97;7.65;99794.34;5030165;28;19917;-48
2022/07/01 10:25:30;;;;;;;;;;;;;;;43.95;7.77;99796.53;5022766;28;19921;-45
2022/07/01 10:28:14;;;;;;;;;;;;;;;43.69;7.78;99804.63;5012011;28;19921;-43
2022/07/01 10:30:50;;;;;;;;;;;;;;;43.63;8.03;99793.88;5028644;28;19944;-43
2022/07/01 10:33:29;;;;;;;;;;;;;;;43.48;7.91;99790.00;5029031;28;20004;-44
2022/07/01 10:35:54;;;;;;;;;;;;;;;43.49;7.76;99788.91;5029082;28;19917;-45
2022/07/01 10:38:20;;;;;;;;;;;;;;;43.24;7.66;99793.34;5029582;28;19940;-46
2022/07/01 10:40:48;;;;;;;;;;;;;;;43.28;7.59;99792.56;5027602;28;19909;-44
2022/07/01 10:43:32;;;;;;;;;;;;;;;43.44;7.67;99794.31;5029916;28;19947;-45
2022/07/01 10:45:57;;;;;;;;;;;;;;;43.49;7.84;99793.56;5028114;28;19951;-44
2022/07/01 10:48:23;;;;;;;;;;;;;;;43.40;7.97;99784.97;5029648;28;20328;-43
2022/07/01 10:50:50;;;;;;;;;;;;;;;43.41;8.07;99783.06;5027735;28;19924;-44
2022/07/01 10:53:16;;;;;;;;;;;;;;;43.50;8.31;99789.69;5026600;28;20016;-47
2022/07/01 10:55:48;;;;;;;;;;;;;;;43.26;8.27;99786.53;4996045;28;19936;-42
2022/07/01 10:58:14;;;;;;;;;;;;;;;42.88;8.40;99776.63;5029466;28;19917;-42
2022/07/01 11:00:43;;;;;;;;;;;;;;;42.84;8.46;99782.91;5029372;28;19917;-43
2022/07/01 11:03:19;;;;;;;;;;;;;;;42.95;8.56;99785.47;5013349;28;20090;-43
2022/07/01 11:05:45;;;;;;;;;;;;;;;42.94;8.67;99781.06;5041244;28;19921;-43
2022/07/01 11:08:11;;;;;;;;;;;;;;;42.94;8.55;99778.31;5028170;28;19917;-46
2022/07/01 11:10:38;;;;;;;;;;;;;;;43.09;8.75;99775.72;5012076;28;19963;-45
2022/07/01 11:13:03;;;;;;;;;;;;;;;43.15;8.58;99782.06;5029444;28;20060;-43
2022/07/01 11:15:29;;;;;;;;;;;;;;;43.09;8.57;99777.66;5032924;28;20011;-44
2022/07/01 11:17:56;;;;;;;;;;;;;;;43.22;8.54;99781.84;5032155;28;19924;-45
2022/07/01 11:20:22;;;;;;;;;;;;;;;43.13;8.50;99775.22;5032454;28;19940;-46
2022/07/01 11:22:48;;;;;;;;;;;;;;;42.94;8.36;99778.31;5016342;28;20315;-45
2022/07/01 11:25:13;;;;;;;;;;;;;;;42.90;8.01;99784.59;4999521;28;19921;-44
2022/07/01 11:27:40;;;;;;;;;;;;;;;42.86;8.06;99778.00;5031074;28;20210;-48
2022/07/01 11:30:08;;;;;;;;;;;;;;;42.90;7.89;99781.84;5031663;28;19916;-45
2022/07/01 11:32:35;;;;;;;;;;;;;;;43.10;7.88;99784.78;5056684;28;19917;-43
2022/07/01 11:35:01;;;;;;;;;;;;;;;43.09;7.73;99786.69;5029132;28;19917;-46
2022/07/01 11:40:14;;;;;;;;;;;;;;;42.91;7.73;99770.66;5032120;28;19917;-44
2022/07/01 11:42:40;;;;;;;;;;;;;;;42.83;8.10;99781.25;5024333;28;19917;-44
2022/07/01 11:45:06;;;;;;;;;;;;;;;42.66;7.83;99776.69;5045815;28;19927;-46
2022/07/01 11:47:32;;;;;;;;;;;;;;;42.56;7.70;99790.28;5029198;28;20309;-45
2022/07/01 11:49:58;;;;;;;;;;;;;;;42.63;8.09;99782.69;5028603;28;19916;-46
2022/07/01 11:52:25;;;;;;;;;;;;;;;42.68;7.76;99785.50;5017976;28;19940;-46
2022/07/01 11:54:51;;;;;;;;;;;;;;;42.44;7.36;99792.38;5012858;28;20385;-45
2022/07/01 11:57:24;;;;;;;;;;;;;;;42.42;7.67;99791.78;5045301;28;19917;-45
2022/07/01 11:59:50;;;;;;;;;;;;;;;42.37;7.50;99791.72;5027785;28;19968;-47
2022/07/01 12:02:17;;;;;;;;;;;;;;;42.39;7.36;99800.50;5030636;28;19917;-44
2022/07/01 12:04:43;;;;;;;;;;;;;;;42.17;7.89;99797.78;5033256;28;19917;-45
2022/07/01 12:07:10;;;;;;;;;;;;;;;42.15;7.81;99802.66;5029606;28;19921;-45
2022/07/01 12:09:35;;;;;;;;;;;;;;;42.40;7.79;99796.66;5019689;28;19957;-43
2022/07/01 12:12:01;;;;;;;;;;;;;;;42.66;7.57;99790.38;5013929;28;19956;-43
2022/07/01 12:14:27;;;;;;;;;;;;;;;42.93;7.60;99797.72;5024840;28;19939;-45
2022/07/01 12:16:55;;;;;;;;;;;;;;;42.96;7.85;99805.44;5031115;28;19921;-50
2022/07/01 12:19:31;;;;;;;;;;;;;;;42.88;7.71;99800.44;5040382;28;20396;-54
2022/07/01 12:22:00;;;;;;;;;;;;;;;42.95;8.05;99798.31;4996336;28;19923;-46
2022/07/01 12:24:26;;;;;;;;;;;;;;;42.91;7.97;99792.53;5014051;28;19917;-48
2022/07/01 12:26:52;;;;;;;;;;;;;;;42.71;8.01;99788.81;5031024;28;20019;-46
2022/07/01 12:29:19;;;;;;;;;;;;;;;42.56;8.00;99795.75;5018252;28;19917;-49
2022/07/01 12:31:54;;;;;;;;;;;;;;;42.54;8.71;99800.66;5027424;28;19917;-50
2022/07/01 12:34:22;;;;;;;;;;;;;;;42.45;8.43;99796.72;4995691;28;20424;-52
2022/07/01 12:36:49;;;;;;;;;;;;;;;42.19;8.50;99794.78;4996265;28;19924;-49
2022/07/01 12:39:14;;;;;;;;;;;;;;;41.83;8.43;99802.50;5045682;28;20408;-45
2022/07/01 12:41:40;;;;;;;;;;;;;;;41.32;8.81;99802.88;5031165;28;20057;-46
2022/07/01 12:44:19;;;;;;;;;;;;;;;40.23;9.09;99802.28;5031467;28;20285;-45
2022/07/01 12:46:45;;;;;;;;;;;;;;;38.88;9.06;99799.72;5062995;28;19921;-46
2022/07/01 12:49:17;;;;;;;;;;;;;;;37.46;9.92;99794.78;5031043;28;19924;-46
2022/07/01 12:51:43;;;;;;;;;;;;;;;36.23;10.59;99792.72;5032703;28;20301;-53
2022/07/01 12:54:09;;;;;;;;;;;;;;;35.35;10.97;99789.63;5032764;28;19967;-47
2022/07/01 12:56:36;;;;;;;;;;;;;;;34.64;11.29;99797.47;5064124;28;19916;-47
2022/07/01 12:59:02;;;;;;;;;;;;;;;34.06;11.64;99798.91;5028904;28;19917;-47
2022/07/01 13:01:27;;;;;;;;;;;;;;;33.53;11.92;99792.38;5011330;28;19967;-45
2022/07/01 13:03:53;;;;;;;;;;;;;;;33.12;12.32;99803.03;5012561;28;19972;-46